Time;durP1;ratioP1;P1;durP2;ratioP2;P2;SDS_P1;SDS_P2;PMS_P1;PMS_P2;Temp;Humidity;BMP_temperature;BMP_pressure;BME280_temperature;BME280_humidity;BME280_pressure;Samples;Min_cycle;Max_cycle;Signal;HPM_P1;HPM_P2
2021/04/04 00:00:33;;;;;;;6.78;4.10;;;6.40;86.50;;;;;;4921646;29;20044;-77
2021/04/04 00:02:58;;;;;;;6.18;4.28;;;6.30;87.70;;;;;;4920772;29;20500;-77
2021/04/04 00:05:24;;;;;;;8.55;4.05;;;6.30;88.40;;;;;;4922092;29;20107;-77
2021/04/04 00:07:50;;;;;;;7.85;4.35;;;6.20;90.00;;;;;;4921205;29;20522;-77
2021/04/04 00:10:18;;;;;;;9.23;4.28;;;6.20;88.80;;;;;;4921446;29;20142;-77
2021/04/04 00:12:44;;;;;;;7.82;3.53;;;6.20;89.80;;;;;;4921548;29;20068;-77
2021/04/04 00:15:12;;;;;;;7.82;3.95;;;6.20;89.10;;;;;;4921434;29;20040;-77
2021/04/04 00:17:39;;;;;;;6.80;4.53;;;6.20;90.20;;;;;;4921300;29;20036;-77
2021/04/04 00:20:10;;;;;;;6.35;4.10;;;6.10;90.80;;;;;;4921888;29;20118;-77
2021/04/04 00:22:36;;;;;;;6.78;3.67;;;6.20;90.70;;;;;;4921502;29;20054;-77
2021/04/04 00:25:05;;;;;;;7.03;4.40;;;6.10;90.60;;;;;;4904542;29;20048;-77
2021/04/04 00:27:31;;;;;;;4.75;3.65;;;6.10;90.90;;;;;;4921511;29;20051;-77
2021/04/04 00:29:56;;;;;;;6.80;3.85;;;6.10;91.30;;;;;;4921141;29;20040;-77
2021/04/04 00:32:22;;;;;;;8.23;4.43;;;6.10;91.80;;;;;;4921395;29;20043;-77
2021/04/04 00:34:48;;;;;;;9.45;5.22;;;6.00;92.10;;;;;;4921040;29;20079;-78
2021/04/04 00:37:14;;;;;;;9.10;4.90;;;6.10;91.20;;;;;;4920947;29;20075;-77
2021/04/04 00:39:40;;;;;;;8.02;4.70;;;6.20;91.30;;;;;;4921202;29;20388;-77
2021/04/04 00:42:06;;;;;;;12.18;4.97;;;6.20;91.50;;;;;;4920080;29;20047;-77
2021/04/04 00:44:32;;;;;;;5.30;4.15;;;6.10;91.70;;;;;;4921436;29;20044;-78
2021/04/04 00:46:57;;;;;;;7.30;4.28;;;6.20;91.50;;;;;;4903948;29;20039;-77
2021/04/04 00:49:23;;;;;;;5.78;4.45;;;6.20;91.50;;;;;;4921549;29;20040;-78
2021/04/04 00:51:49;;;;;;;8.23;4.72;;;6.00;91.20;;;;;;4920731;29;20028;-77
2021/04/04 00:54:15;;;;;;;7.05;4.32;;;6.00;91.70;;;;;;4920965;29;20054;-77
2021/04/04 00:56:41;;;;;;;8.60;5.18;;;6.00;92.60;;;;;;4920593;29;20036;-77
2021/04/04 00:59:07;;;;;;;6.93;4.70;;;6.00;92.30;;;;;;4920875;29;20153;-77
2021/04/04 01:01:34;;;;;;;7.18;5.05;;;6.00;92.20;;;;;;4920843;29;20102;-77
2021/04/04 01:04:00;;;;;;;7.78;5.00;;;6.00;92.80;;;;;;4920661;29;20511;-77
2021/04/04 01:06:26;;;;;;;6.43;4.90;;;6.10;92.20;;;;;;4920480;29;20043;-77
2021/04/04 01:08:52;;;;;;;7.15;4.15;;;6.00;92.60;;;;;;4921049;29;20040;-77
2021/04/04 01:11:23;;;;;;;6.13;4.03;;;6.10;91.60;;;;;;4921104;29;20036;-77
2021/04/04 01:14:09;;;;;;;8.07;4.43;;;6.50;90.40;;;;;;4919984;29;20056;-77
2021/04/04 01:16:38;;;;;;;8.10;4.15;;;6.30;91.20;;;;;;4920325;29;20039;-77
2021/04/04 01:19:42;;;;;;;6.60;4.45;;;6.10;91.80;;;;;;4920032;29;20071;-77
2021/04/04 01:22:33;;;;;;;7.05;4.45;;;6.10;92.30;;;;;;4920272;29;20492;-77
2021/04/04 01:25:07;;;;;;;6.78;4.32;;;6.20;90.50;;;;;;4920499;29;20040;-77
2021/04/04 01:28:05;;;;;;;6.50;3.97;;;6.20;91.80;;;;;;4919960;29;20092;-77
2021/04/04 01:30:34;;;;;;;6.45;4.43;;;6.20;91.00;;;;;;4899770;29;20035;-77
2021/04/04 01:33:01;;;;;;;8.93;4.03;;;6.30;90.60;;;;;;4919573;29;20051;-77
2021/04/04 01:35:30;;;;;;;10.27;4.45;;;6.20;91.20;;;;;;4919989;29;20040;-77
2021/04/04 01:38:00;;;;;;;4.90;3.72;;;6.10;90.60;;;;;;4919976;29;20044;-78
2021/04/04 01:40:27;;;;;;;7.72;3.95;;;6.10;91.10;;;;;;4919895;29;20155;-77
2021/04/04 01:42:54;;;;;;;8.63;4.50;;;6.10;91.70;;;;;;4919739;29;20040;-77
2021/04/04 01:45:25;;;;;;;6.60;3.95;;;6.20;90.50;;;;;;4920040;29;20040;-77
2021/04/04 01:47:52;;;;;;;8.82;4.30;;;6.40;91.50;;;;;;4902315;29;20050;-77
2021/04/04 01:50:20;;;;;;;6.15;3.78;;;6.30;92.00;;;;;;4919460;29;20044;-77
2021/04/04 01:52:49;;;;;;;7.63;4.07;;;6.10;92.00;;;;;;4919614;29;20496;-77
2021/04/04 01:55:15;;;;;;;7.65;3.95;;;6.00;92.30;;;;;;4919108;29;20074;-77
2021/04/04 01:57:42;;;;;;;5.30;3.80;;;6.00;91.10;;;;;;4919389;29;20048;-77
2021/04/04 02:00:12;;;;;;;6.05;3.60;;;6.00;91.20;;;;;;4919230;29;20031;-77
2021/04/04 02:02:38;;;;;;;4.95;3.65;;;5.90;91.70;;;;;;4919448;29;20150;-77
2021/04/04 02:05:08;;;;;;;6.93;4.13;;;6.00;91.00;;;;;;4919436;29;20040;-77
2021/04/04 02:07:38;;;;;;;8.35;4.13;;;6.10;90.80;;;;;;4919493;29;20043;-77
2021/04/04 02:10:07;;;;;;;7.43;3.70;;;6.00;91.10;;;;;;4919328;29;20044;-77
2021/04/04 02:12:35;;;;;;;6.90;4.25;;;6.00;91.50;;;;;;4918910;29;20056;-77
2021/04/04 02:15:05;;;;;;;10.43;4.05;;;6.00;91.10;;;;;;4919251;29;20036;-77
2021/04/04 02:17:34;;;;;;;11.82;3.83;;;6.10;90.60;;;;;;4918936;29;20134;-77
2021/04/04 02:20:00;;;;;;;5.93;3.90;;;6.30;89.40;;;;;;4919159;29;20040;-77
2021/04/04 02:22:26;;;;;;;6.88;3.42;;;6.30;89.40;;;;;;4919094;29;20484;-77
2021/04/04 02:24:52;;;;;;;6.47;3.78;;;6.40;89.10;;;;;;4918807;29;20127;-77
2021/04/04 02:27:18;;;;;;;6.80;3.55;;;6.50;88.00;;;;;;4918710;29;20063;-77
2021/04/04 02:29:44;;;;;;;5.18;3.53;;;6.50;87.80;;;;;;4919240;29;20064;-77
2021/04/04 02:32:13;;;;;;;6.00;4.15;;;6.50;87.20;;;;;;4918832;29;20462;-77
2021/04/04 02:34:42;;;;;;;7.82;3.85;;;6.40;88.20;;;;;;4918891;29;20040;-77
2021/04/04 02:37:14;;;;;;;6.38;3.85;;;6.40;87.90;;;;;;4918805;29;20399;-77
2021/04/04 02:39:49;;;;;;;8.18;3.47;;;6.50;86.50;;;;;;4918818;29;20051;-77
2021/04/04 02:42:21;;;;;;;8.40;3.60;;;6.50;87.10;;;;;;4918777;29;20088;-77
2021/04/04 02:44:50;;;;;;;6.00;3.35;;;6.50;86.90;;;;;;4918357;29;20114;-77
2021/04/04 02:47:18;;;;;;;5.03;3.20;;;6.50;86.10;;;;;;4918239;29;20048;-77
2021/04/04 02:49:49;;;;;;;6.47;3.50;;;6.50;86.10;;;;;;4918353;29;20527;-77
2021/04/04 02:52:20;;;;;;;5.28;3.92;;;6.40;87.60;;;;;;4919007;29;20040;-78
2021/04/04 02:54:51;;;;;;;6.30;3.08;;;6.40;87.00;;;;;;4918889;29;20067;-77
2021/04/04 02:57:18;;;;;;;;;;;6.40;86.40;;;;;;4919060;29;20147;-77
2021/04/04 02:59:49;;;;;;;5.45;3.28;;;6.40;87.60;;;;;;4918299;29;20413;-77
2021/04/04 03:02:18;;;;;;;6.80;3.72;;;6.40;87.00;;;;;;4918223;29;20064;-77
2021/04/04 03:04:47;;;;;;;7.35;3.83;;;6.40;86.90;;;;;;4917825;29;20060;-77
2021/04/04 03:07:18;;;;;;;4.65;3.10;;;6.30;87.80;;;;;;4918035;29;20044;-77
2021/04/04 03:09:47;;;;;;;7.35;3.47;;;6.40;89.10;;;;;;4901861;29;20511;-77
2021/04/04 03:12:17;;;;;;;6.22;3.70;;;6.40;86.30;;;;;;4918550;29;20096;-77
2021/04/04 03:14:48;;;;;;;5.45;3.15;;;6.40;87.10;;;;;;4918720;29;20403;-77
2021/04/04 03:17:15;;;;;;;5.80;3.33;;;6.30;88.50;;;;;;4918539;29;20483;-77
2021/04/04 03:19:44;;;;;;;7.78;6.10;;;6.30;87.60;;;;;;4918329;29;20047;-78
2021/04/04 03:22:12;;;;;;;6.57;3.05;;;6.30;86.90;;;;;;4918615;29;20036;-77
2021/04/04 03:24:40;;;;;;;5.70;2.97;;;6.30;85.80;;;;;;4918822;29;20036;-77
2021/04/04 03:27:06;;;;;;;7.78;3.38;;;6.30;87.40;;;;;;4918782;29;20123;-77
2021/04/04 03:29:34;;;;;;;7.20;3.17;;;6.30;86.00;;;;;;4918249;29;20044;-77
2021/04/04 03:32:01;;;;;;;4.95;3.03;;;6.20;86.30;;;;;;4918260;29;20044;-77
2021/04/04 03:34:28;;;;;;;4.20;3.50;;;6.30;85.70;;;;;;4918418;29;20522;-77
2021/04/04 03:36:54;;;;;;;7.13;3.30;;;6.30;85.70;;;;;;4918366;29;20127;-77
2021/04/04 03:39:25;;;;;;;3.28;2.85;;;6.30;85.80;;;;;;4918407;29;20040;-77
2021/04/04 03:41:53;;;;;;;4.18;2.67;;;6.40;83.30;;;;;;4918745;29;20044;-77
2021/04/04 03:44:21;;;;;;;5.97;2.67;;;6.40;82.80;;;;;;4918839;29;20115;-77
2021/04/04 03:46:48;;;;;;;7.28;2.70;;;6.50;81.90;;;;;;4918232;29;20076;-77
2021/04/04 03:49:14;;;;;;;4.05;2.85;;;6.50;82.40;;;;;;4918362;29;20040;-77
2021/04/04 03:51:41;;;;;;;4.60;3.00;;;6.50;82.30;;;;;;4918727;29;20059;-77
2021/04/04 03:54:13;;;;;;;6.93;2.53;;;6.40;83.20;;;;;;4901263;29;20396;-77
2021/04/04 03:56:43;;;;;;;6.28;3.30;;;6.30;85.20;;;;;;4918594;29;20464;-77
2021/04/04 03:59:11;;;;;;;3.83;2.75;;;6.10;87.10;;;;;;4917952;29;20064;-77
2021/04/04 04:01:45;;;;;;;5.93;3.55;;;5.90;89.10;;;;;;4918175;29;20052;-77
2021/04/04 04:04:12;;;;;;;6.70;3.28;;;5.70;90.10;;;;;;4918486;29;20048;-77
2021/04/04 04:06:44;;;;;;;9.00;2.83;;;5.60;89.50;;;;;;4900938;29;20139;-77
2021/04/04 04:09:14;;;;;;;5.60;3.13;;;5.60;90.40;;;;;;4918081;29;20036;-78
2021/04/04 04:11:43;;;;;;;4.63;3.08;;;5.60;90.10;;;;;;4918664;29;20179;-77
2021/04/04 04:14:13;;;;;;;7.15;3.28;;;5.60;91.10;;;;;;4917405;29;20059;-77
2021/04/04 04:16:39;;;;;;;5.18;3.03;;;5.60;91.00;;;;;;4919028;29;20040;-77
2021/04/04 04:19:06;;;;;;;5.38;2.72;;;5.50;90.90;;;;;;4921331;29;20044;-77
2021/04/04 04:21:33;;;;;;;5.22;2.92;;;5.50;91.40;;;;;;4921860;29;20044;-77
2021/04/04 04:24:01;;;;;;;7.05;3.30;;;5.50;91.20;;;;;;4921764;29;20035;-77
2021/04/04 04:26:29;;;;;;;9.27;3.42;;;5.40;91.10;;;;;;4921193;29;20044;-77
2021/04/04 04:28:55;;;;;;;6.05;3.03;;;5.50;90.60;;;;;;4921659;29;20064;-77
2021/04/04 04:31:28;;;;;;;8.50;3.30;;;5.50;91.00;;;;;;4921792;29;20091;-77
2021/04/04 04:33:56;;;;;;;4.40;2.95;;;5.30;92.00;;;;;;4921433;29;20142;-77
2021/04/04 04:36:23;;;;;;;4.78;2.88;;;5.30;91.90;;;;;;4920938;29;20068;-77
2021/04/04 04:38:50;;;;;;;7.75;3.15;;;5.10;92.10;;;;;;4920995;29;20044;-77
2021/04/04 04:41:17;;;;;;;4.88;3.67;;;5.10;92.70;;;;;;4921497;29;20063;-77
2021/04/04 04:43:47;;;;;;;3.22;2.45;;;5.10;92.90;;;;;;4921138;29;20146;-77
2021/04/04 04:46:17;;;;;;;6.40;3.38;;;5.00;93.20;;;;;;4921056;29;20050;-77
2021/04/04 04:48:43;;;;;;;6.90;3.27;;;4.90;93.50;;;;;;4920871;29;20067;-78
2021/04/04 04:51:10;;;;;;;7.47;3.00;;;4.90;93.90;;;;;;4921179;29;20122;-77
2021/04/04 04:53:37;;;;;;;4.90;3.28;;;4.80;94.10;;;;;;4921009;29;20040;-77
2021/04/04 04:56:04;;;;;;;6.60;3.20;;;4.80;93.30;;;;;;4920970;29;20040;-77
2021/04/04 04:58:31;;;;;;;7.85;3.38;;;4.80;94.50;;;;;;4920632;29;20040;-77
2021/04/04 05:01:00;;;;;;;6.57;3.25;;;4.70;94.90;;;;;;4920582;29;20047;-77
2021/04/04 05:03:26;;;;;;;3.60;2.85;;;4.60;94.30;;;;;;4920332;29;20044;-77
2021/04/04 05:05:52;;;;;;;5.75;3.08;;;4.50;95.00;;;;;;4920886;29;20048;-77
2021/04/04 05:08:20;;;;;;;5.72;3.17;;;4.40;96.00;;;;;;4920830;29;20067;-77
2021/04/04 05:10:47;;;;;;;4.38;3.13;;;4.40;96.20;;;;;;4920434;29;20040;-77
2021/04/04 05:13:13;;;;;;;5.53;3.03;;;4.50;96.50;;;;;;4920384;29;20059;-77
2021/04/04 05:15:41;;;;;;;5.95;3.30;;;4.60;95.90;;;;;;4903561;29;20461;-77
2021/04/04 05:18:07;;;;;;;4.70;2.92;;;4.60;95.90;;;;;;4919817;29;20127;-77
2021/04/04 05:20:33;;;;;;;4.43;3.15;;;4.60;95.50;;;;;;4920285;29;20052;-77
2021/04/04 05:23:01;;;;;;;4.32;3.13;;;4.60;95.70;;;;;;4920398;29;20122;-77
2021/04/04 05:25:28;;;;;;;5.05;2.90;;;4.60;95.80;;;;;;4920106;29;20036;-77
2021/04/04 05:27:57;;;;;;;5.40;2.72;;;4.60;96.00;;;;;;4919646;29;20044;-77
2021/04/04 05:30:25;;;;;;;5.75;2.97;;;4.60;96.30;;;;;;4920313;29;20035;-77
2021/04/04 05:32:51;;;;;;;6.93;3.08;;;4.40;95.60;;;;;;4920073;29;20052;-77
2021/04/04 05:35:22;;;;;;;4.25;2.97;;;4.50;96.90;;;;;;4920016;29;20047;-77
2021/04/04 05:37:49;;;;;;;7.38;3.22;;;4.50;96.90;;;;;;4920212;29;20583;-77
2021/04/04 05:40:34;;;;;;;6.82;2.90;;;4.50;97.00;;;;;;4919635;29;20106;-77
2021/04/04 05:43:21;;;;;;;6.75;2.88;;;4.50;96.40;;;;;;4920027;29;20056;-77
2021/04/04 05:46:23;;;;;;;7.28;3.30;;;4.50;96.80;;;;;;4919013;29;20056;-77
2021/04/04 05:48:58;;;;;;;4.70;3.00;;;4.60;97.60;;;;;;4900851;29;20096;-77
2021/04/04 05:51:53;;;;;;;8.60;3.10;;;4.60;97.50;;;;;;4920023;29;20036;-77
2021/04/04 05:54:52;;;;;;;7.05;3.70;;;4.70;96.90;;;;;;4897983;29;20047;-77
2021/04/04 05:57:41;;;;;;;5.10;2.70;;;4.80;96.50;;;;;;4919579;29;20042;-77
2021/04/04 06:00:09;;;;;;;4.78;3.35;;;4.80;96.60;;;;;;4919679;29;20147;-77
2021/04/04 06:03:15;;;;;;;7.32;3.35;;;5.00;96.20;;;;;;4919424;29;20048;-77
2021/04/04 06:06:09;;;;;;;6.75;3.50;;;5.30;95.60;;;;;;4919969;29;20040;-77
2021/04/04 06:08:56;;;;;;;6.60;3.13;;;5.80;94.50;;;;;;4919681;29;20063;-77
2021/04/04 06:11:41;;;;;;;7.88;3.65;;;6.60;92.50;;;;;;4919484;29;20119;-77
2021/04/04 06:14:35;;;;;;;6.50;3.50;;;7.70;84.80;;;;;;4919155;29;20083;-77
2021/04/04 06:17:39;;;;;;;7.22;2.85;;;9.10;79.60;;;;;;4918797;29;20624;-77
2021/04/04 06:20:13;;;;;;;6.35;3.22;;;10.50;72.20;;;;;;4919458;29;20044;-77
2021/04/04 06:23:00;;;;;;;4.05;2.60;;;10.20;71.00;;;;;;4913788;29;20103;-77
2021/04/04 06:25:47;;;;;;;8.50;3.13;;;8.10;77.30;;;;;;4909820;29;20119;-77
2021/04/04 06:28:30;;;;;;;9.68;2.88;;;8.20;81.90;;;;;;4917787;29;20043;-78
2021/04/04 06:31:33;;;;;;;5.63;2.42;;;8.70;78.20;;;;;;4900843;29;20036;-77
2021/04/04 06:34:09;;;;;;;5.35;2.55;;;9.80;73.50;;;;;;4896988;29;20049;-77
2021/04/04 06:36:53;;;;;;;15.52;6.32;;;9.40;73.20;;;;;;4915154;29;20040;-77
2021/04/04 06:39:41;;;;;;;11.25;6.00;;;9.30;76.00;;;;;;4917670;29;20039;-77
2021/04/04 06:42:17;;;;;;;4.65;2.70;;;9.00;75.40;;;;;;4917660;29;20554;-78
2021/04/04 06:45:10;;;;;;;4.07;2.67;;;8.90;77.50;;;;;;4917668;29;20079;-77
2021/04/04 06:47:47;;;;;;;4.55;2.67;;;8.70;77.00;;;;;;4918120;29;20040;-77
2021/04/04 06:50:22;;;;;;;3.70;2.92;;;8.60;76.30;;;;;;4917934;29;20075;-77
2021/04/04 06:52:56;;;;;;;3.85;2.85;;;8.50;78.10;;;;;;4917038;29;20047;-77
2021/04/04 06:55:45;;;;;;;8.43;4.43;;;8.30;77.30;;;;;;4917216;29;20135;-77
2021/04/04 06:58:26;;;;;;;5.57;3.15;;;8.30;77.20;;;;;;4915005;29;20036;-77
2021/04/04 07:01:23;;;;;;;6.07;2.95;;;8.40;76.40;;;;;;4918198;29;20046;-76
2021/04/04 07:04:17;;;;;;;3.80;2.60;;;8.50;73.70;;;;;;4917817;29;20503;-76
2021/04/04 07:07:04;;;;;;;5.55;2.80;;;8.60;73.40;;;;;;4920166;29;20103;-77
2021/04/04 07:09:40;;;;;;;10.15;3.33;;;8.60;71.70;;;;;;4917632;29;20048;-77
2021/04/04 07:12:21;;;;;;;6.70;4.25;;;8.60;71.50;;;;;;4917542;29;20055;-77
2021/04/04 07:15:26;;;;;;;6.15;3.15;;;8.80;71.70;;;;;;4917272;29;20048;-77
2021/04/04 07:18:20;;;;;;;6.60;3.00;;;8.80;71.40;;;;;;4915923;29;20040;-77
2021/04/04 07:21:09;;;;;;;5.78;2.20;;;8.90;70.80;;;;;;4916778;29;20044;-77
2021/04/04 07:24:21;;;;;;;5.97;2.75;;;9.00;70.70;;;;;;4927809;29;20044;-76
2021/04/04 07:27:07;;;;;;;4.28;2.67;;;9.00;69.90;;;;;;4910104;29;20040;-77
2021/04/04 07:30:02;;;;;;;7.78;2.70;;;9.10;69.40;;;;;;4917124;29;20127;-77
2021/04/04 07:32:47;;;;;;;4.88;2.63;;;9.20;71.00;;;;;;4916741;29;20092;-77
2021/04/04 07:35:18;;;;;;;4.20;2.70;;;9.30;69.80;;;;;;4915136;29;20127;-77
2021/04/04 07:37:49;;;;;;;4.97;3.05;;;9.40;71.50;;;;;;4916948;29;20051;-77
2021/04/04 07:40:35;;;;;;;5.95;2.35;;;9.40;69.20;;;;;;4916971;29;20078;-77
2021/04/04 07:43:05;;;;;;;4.93;2.53;;;9.40;68.60;;;;;;4869673;29;20051;-77
2021/04/04 07:45:51;;;;;;;4.22;2.38;;;9.50;68.00;;;;;;4917975;29;20051;-76
2021/04/04 07:48:32;;;;;;;5.45;2.20;;;9.70;68.30;;;;;;4917565;29;20048;-76
2021/04/04 07:51:12;;;;;;;5.75;2.70;;;9.60;68.50;;;;;;4917008;29;20033;-76
2021/04/04 07:53:53;;;;;;;5.55;2.20;;;9.70;67.60;;;;;;4920791;29;20043;-76
2021/04/04 07:56:33;;;;;;;5.55;2.70;;;9.70;67.20;;;;;;4921692;29;20040;-76
2021/04/04 07:59:17;;;;;;;3.50;2.75;;;9.80;67.60;;;;;;4920972;29;20044;-76
2021/04/04 08:01:49;;;;;;;4.13;2.75;;;9.80;67.00;;;;;;4919352;29;20063;-77
2021/04/04 08:04:39;;;;;;;3.63;2.38;;;9.90;66.60;;;;;;4920423;29;20068;-77
2021/04/04 08:07:24;;;;;;;6.18;2.42;;;9.90;67.00;;;;;;4921122;29;20519;-76
2021/04/04 08:10:12;;;;;;;6.63;2.45;;;10.00;66.60;;;;;;4921608;29;20032;-76
2021/04/04 08:13:09;;;;;;;4.22;2.45;;;10.10;68.40;;;;;;4921452;29;21466;-76
2021/04/04 08:15:39;;;;;;;4.32;2.60;;;10.10;65.80;;;;;;4920910;29;20040;-76
2021/04/04 08:18:05;;;;;;;6.53;2.60;;;10.20;66.40;;;;;;4920631;29;20036;-76
2021/04/04 08:20:40;;;;;;;4.32;2.78;;;10.30;65.30;;;;;;4921188;29;20036;-76
2021/04/04 08:23:22;;;;;;;3.78;2.28;;;10.30;65.20;;;;;;4920799;29;20095;-76
2021/04/04 08:26:03;;;;;;;6.13;2.60;;;10.30;64.90;;;;;;4920930;29;20075;-76
2021/04/04 08:28:40;;;;;;;5.97;2.63;;;10.40;66.20;;;;;;4920981;29;20044;-76
2021/04/04 08:31:27;;;;;;;3.80;2.58;;;10.60;66.60;;;;;;4921006;29;20040;-76
2021/04/04 08:33:55;;;;;;;4.18;2.83;;;10.80;64.90;;;;;;4921206;29;20040;-76
2021/04/04 08:36:26;;;;;;;6.88;2.55;;;11.00;64.50;;;;;;4920813;29;20055;-76
2021/04/04 08:38:56;;;;;;;4.38;2.63;;;11.10;63.60;;;;;;4920463;29;20036;-76
2021/04/04 08:41:24;;;;;;;5.80;3.55;;;11.20;63.20;;;;;;4921106;29;20144;-76
2021/04/04 08:43:58;;;;;;;4.47;2.53;;;11.40;63.80;;;;;;4919981;29;20047;-76
2021/04/04 08:46:54;;;;;;;5.07;2.45;;;11.50;62.90;;;;;;4920164;29;20082;-76
2021/04/04 08:49:21;;;;;;;9.90;4.78;;;11.60;62.50;;;;;;4920627;29;20036;-75
2021/04/04 08:51:59;;;;;;;4.78;2.40;;;11.80;62.50;;;;;;4920713;29;20052;-76
2021/04/04 08:54:28;;;;;;;6.35;3.83;;;11.80;61.50;;;;;;4920809;29;20055;-76
2021/04/04 08:56:56;;;;;;;4.45;3.10;;;12.20;62.30;;;;;;4919127;29;20039;-76
2021/04/04 08:59:31;;;;;;;6.72;3.88;;;12.10;60.90;;;;;;4919759;29;20046;-76
2021/04/04 09:02:06;;;;;;;8.18;3.13;;;12.20;62.10;;;;;;4919987;29;20044;-76
2021/04/04 09:04:34;;;;;;;6.13;2.85;;;11.80;62.00;;;;;;4917020;29;20064;-80
2021/04/04 09:07:04;;;;;;;5.95;2.90;;;11.90;62.20;;;;;;4917791;29;20060;-78
2021/04/04 09:09:37;;;;;;;5.15;2.72;;;11.80;62.50;;;;;;4919556;29;20036;-75
2021/04/04 09:12:05;;;;;;;6.10;2.85;;;11.50;64.60;;;;;;4919632;29;20052;-75
2021/04/04 09:14:41;;;;;;;8.32;3.25;;;11.30;65.40;;;;;;4902124;29;20067;-76
2021/04/04 09:17:10;;;;;;;5.97;3.40;;;11.30;65.10;;;;;;4918680;29;20067;-76
2021/04/04 09:19:40;;;;;;;4.75;3.20;;;11.30;65.50;;;;;;4919986;29;20040;-76
2021/04/04 09:22:15;;;;;;;6.43;3.17;;;11.30;63.90;;;;;;4919846;29;20047;-76
2021/04/04 09:24:46;;;;;;;6.07;2.95;;;11.30;64.80;;;;;;4919966;29;20047;-76
2021/04/04 09:27:16;;;;;;;7.00;3.63;;;11.30;64.50;;;;;;4903047;29;20036;-76
2021/04/04 09:29:45;;;;;;;6.63;3.38;;;11.40;65.50;;;;;;4920428;29;20555;-75
2021/04/04 09:32:30;;;;;;;7.82;3.72;;;11.40;65.20;;;;;;4920083;29;20044;-75
2021/04/04 09:34:56;;;;;;;6.72;2.80;;;11.50;63.70;;;;;;4920560;29;20105;-75
2021/04/04 09:37:25;;;;;;;5.05;2.78;;;11.50;63.40;;;;;;4920141;29;20067;-78
2021/04/04 09:39:52;;;;;;;5.63;3.65;;;11.50;62.50;;;;;;4920185;29;20040;-78
2021/04/04 09:42:19;;;;;;;10.05;3.58;;;11.50;62.40;;;;;;4919966;29;20044;-78
2021/04/04 09:44:46;;;;;;;7.97;3.00;;;11.60;63.00;;;;;;4919360;29;20080;-76
2021/04/04 09:47:12;;;;;;;6.45;2.58;;;11.60;60.70;;;;;;4918257;29;20040;-75
2021/04/04 09:49:43;;;;;;;4.60;2.70;;;11.60;61.40;;;;;;4917401;29;20035;-76
2021/04/04 09:52:29;;;;;;;5.25;2.92;;;11.80;61.80;;;;;;4919481;29;20032;-76
2021/04/04 09:55:05;;;;;;;6.05;2.65;;;11.80;61.40;;;;;;4919477;29;20036;-78
2021/04/04 09:57:42;;;;;;;5.32;3.15;;;11.80;61.20;;;;;;4919664;29;20039;-78
2021/04/04 10:00:14;;;;;;;7.60;4.03;;;11.80;60.70;;;;;;4902833;29;20048;-75
2021/04/04 10:02:40;;;;;;;5.15;3.03;;;11.90;61.50;;;;;;4919288;29;20032;-76
2021/04/04 10:05:06;;;;;;;4.88;3.22;;;11.90;60.10;;;;;;4919407;29;20069;-74
2021/04/04 10:07:33;;;;;;;7.53;3.30;;;11.90;60.20;;;;;;4919703;29;20089;-75
2021/04/04 10:10:04;;;;;;;7.63;3.58;;;12.00;60.70;;;;;;4919535;29;20044;-72
2021/04/04 10:12:30;;;;;;;;;;;12.10;63.00;;;;;;4919520;29;20127;-72
2021/04/04 10:15:07;;;;;;;4.22;3.10;;;12.10;62.70;;;;;;4918942;29;20401;-72
2021/04/04 10:17:34;;;;;;;5.10;2.90;;;12.20;62.30;;;;;;4919038;29;20130;-71
2021/04/04 10:20:03;;;;;;;3.53;2.47;;;12.20;61.50;;;;;;4918538;29;20079;-73
2021/04/04 10:22:48;;;;;;;9.95;3.75;;;12.20;61.70;;;;;;4918372;29;20074;-72
2021/04/04 10:25:14;;;;;;;4.75;3.08;;;12.40;62.60;;;;;;4919241;29;20044;-72
2021/04/04 10:27:40;;;;;;;8.93;3.92;;;12.50;63.00;;;;;;4918637;29;20046;-75
2021/04/04 10:30:16;;;;;;;9.43;4.05;;;12.60;62.70;;;;;;4918684;29;20123;-74
2021/04/04 10:32:43;;;;;;;6.35;3.67;;;12.50;59.50;;;;;;4918586;29;20032;-75
2021/04/04 10:35:11;;;;;;;9.35;3.78;;;12.60;60.50;;;;;;4918627;29;20128;-75
2021/04/04 10:37:38;;;;;;;9.93;3.92;;;12.60;60.90;;;;;;4918868;29;20127;-75
2021/04/04 10:40:10;;;;;;;5.38;3.28;;;12.70;60.40;;;;;;4918305;29;20052;-75
2021/04/04 10:42:38;;;;;;;6.25;3.60;;;12.70;60.00;;;;;;4916682;29;20040;-75
2021/04/04 10:45:13;;;;;;;7.22;3.88;;;12.70;59.60;;;;;;4916903;29;20060;-74
2021/04/04 10:47:40;;;;;;;7.35;3.53;;;12.70;59.20;;;;;;4918417;29;20042;-74
2021/04/04 10:50:09;;;;;;;6.28;3.80;;;12.70;60.90;;;;;;4917401;29;20040;-75
2021/04/04 10:52:35;;;;;;;5.32;3.35;;;12.80;61.00;;;;;;4918246;29;20036;-75
2021/04/04 10:55:02;;;;;;;7.20;3.28;;;12.90;59.50;;;;;;4918578;29;20048;-75
2021/04/04 10:57:31;;;;;;;5.93;3.10;;;13.00;59.50;;;;;;4918291;29;20127;-75
2021/04/04 10:59:57;;;;;;;6.90;3.28;;;13.00;58.10;;;;;;4918136;29;20558;-74
2021/04/04 11:02:24;;;;;;;7.88;3.38;;;13.00;57.90;;;;;;4918220;29;20044;-74
2021/04/04 11:04:50;;;;;;;4.70;2.92;;;13.20;58.50;;;;;;4918362;29;20138;-74
2021/04/04 11:07:19;;;;;;;8.68;3.20;;;13.20;58.30;;;;;;4918098;29;20610;-75
2021/04/04 11:09:50;;;;;;;7.45;3.22;;;13.30;57.20;;;;;;4916616;29;20043;-74
2021/04/04 11:12:17;;;;;;;;;;;13.30;55.30;;;;;;4917268;29;20160;-75
2021/04/04 11:14:48;;;;;;;5.88;3.10;;;13.30;55.70;;;;;;4916629;29;19911;-76
2021/04/04 11:17:19;;;;;;;4.75;2.83;;;13.30;55.90;;;;;;4916076;29;20044;-74
2021/04/04 11:19:47;;;;;;;3.90;2.75;;;13.50;56.50;;;;;;4916596;29;20070;-75
2021/04/04 11:22:17;;;;;;;5.55;2.90;;;13.40;54.30;;;;;;4916431;29;20074;-75
2021/04/04 11:25:10;;;;;;;5.07;2.97;;;13.40;55.60;;;;;;4916625;29;20099;-74
2021/04/04 11:27:43;;;;;;;3.88;2.70;;;13.50;54.90;;;;;;4896505;29;20052;-75
2021/04/04 11:30:29;;;;;;;6.00;2.72;;;13.50;54.90;;;;;;4898826;29;20036;-74
2021/04/04 11:33:25;;;;;;;6.80;3.13;;;13.60;55.50;;;;;;4898302;29;20048;-74
2021/04/04 11:36:10;;;;;;;5.25;2.80;;;13.70;56.80;;;;;;4886220;29;20149;-74
2021/04/04 11:38:54;;;;;;;6.38;2.58;;;13.70;56.60;;;;;;4898497;29;20056;-74
2021/04/04 11:41:28;;;;;;;7.68;3.78;;;13.80;54.50;;;;;;4898085;29;20465;-74
2021/04/04 11:44:36;;;;;;;4.85;2.97;;;13.80;56.00;;;;;;4897252;29;20053;-74
2021/04/04 11:47:21;;;;;;;15.35;4.78;;;13.80;55.60;;;;;;4840135;29;20041;-75
2021/04/04 11:49:50;;;;;;;7.35;3.25;;;13.90;55.40;;;;;;4896310;29;20070;-74
2021/04/04 11:52:16;;;;;;;6.47;3.08;;;13.90;55.20;;;;;;4898276;29;20041;-73
2021/04/04 11:54:45;;;;;;;8.10;2.92;;;13.90;56.10;;;;;;4898272;29;20096;-74
2021/04/04 12:00:05;;;;;;;4.57;3.28;;;14.00;55.60;;;;;;5237595;23;20168;-73
2021/04/04 12:02:32;;;;;;;4.30;2.90;;;14.00;56.40;;;;;;4896865;29;20052;-73
2021/04/04 12:05:15;;;;;;;5.85;2.90;;;14.20;56.80;;;;;;4895889;29;20100;-74
2021/04/04 12:07:51;;;;;;;7.85;2.80;;;14.10;55.40;;;;;;4896153;29;20052;-73
2021/04/04 12:10:23;;;;;;;6.53;2.58;;;14.10;54.10;;;;;;4896044;29;20040;-72
2021/04/04 12:12:49;;;;;;;7.57;3.33;;;14.20;57.00;;;;;;4895812;29;20040;-72
2021/04/04 12:15:19;;;;;;;6.45;3.30;;;14.20;55.40;;;;;;4895885;29;20036;-72
2021/04/04 12:17:54;;;;;;;4.88;2.95;;;14.10;55.20;;;;;;4896017;29;20098;-73
2021/04/04 12:20:34;;;;;;;2.83;2.47;;;14.10;56.10;;;;;;4889244;29;20108;-73
2021/04/04 12:23:01;;;;;;;3.83;2.80;;;14.00;55.20;;;;;;4903216;29;20043;-72
2021/04/04 12:25:29;;;;;;;7.45;2.78;;;14.20;55.90;;;;;;4913916;29;20054;-73
2021/04/04 12:27:57;;;;;;;6.03;3.30;;;14.20;54.90;;;;;;4914376;29;20051;-73
2021/04/04 12:30:39;;;;;;;3.63;2.25;;;14.30;54.50;;;;;;4915042;29;20451;-73
2021/04/04 12:33:10;;;;;;;5.90;2.60;;;14.30;55.40;;;;;;4915735;29;20043;-73
2021/04/04 12:35:43;;;;;;;6.15;3.05;;;14.40;55.40;;;;;;4896584;29;20048;-73
2021/04/04 12:38:19;;;;;;;5.72;2.65;;;14.40;54.00;;;;;;4897565;29;20051;-73
2021/04/04 12:40:45;;;;;;;3.42;2.38;;;14.60;56.60;;;;;;4900468;29;20447;-73
2021/04/04 12:43:11;;;;;;;6.05;2.85;;;14.60;52.60;;;;;;4900127;29;20045;-74
2021/04/04 12:45:38;;;;;;;8.15;3.85;;;14.40;53.10;;;;;;4915811;29;20546;-73
2021/04/04 12:48:24;;;;;;;8.63;3.28;;;14.60;54.00;;;;;;4919352;29;20047;-74
2021/04/04 12:50:55;;;;;;;8.32;2.88;;;14.70;54.80;;;;;;4917130;29;20051;-73
2021/04/04 12:53:27;;;;;;;5.43;2.90;;;14.70;54.00;;;;;;4916976;29;20036;-73
2021/04/04 12:55:53;;;;;;;7.03;3.35;;;14.80;54.10;;;;;;4899453;29;20044;-74
2021/04/04 12:58:19;;;;;;;18.10;3.15;;;14.80;53.60;;;;;;4917906;29;20048;-74
2021/04/04 13:00:47;;;;;;;4.53;2.72;;;14.70;53.60;;;;;;4918701;29;20048;-73
2021/04/04 13:03:21;;;;;;;7.75;4.10;;;14.70;53.00;;;;;;4919996;29;20515;-72
2021/04/04 13:05:48;;;;;;;4.00;2.67;;;14.90;53.90;;;;;;4911020;29;20045;-73
2021/04/04 13:08:28;;;;;;;5.65;3.22;;;14.80;53.80;;;;;;4900517;29;20036;-72
2021/04/04 13:10:57;;;;;;;7.00;2.60;;;14.90;53.20;;;;;;4900405;29;20048;-72
2021/04/04 13:13:28;;;;;;;4.57;2.63;;;14.90;52.90;;;;;;4900624;29;20048;-72
2021/04/04 13:15:59;;;;;;;4.22;2.75;;;14.90;52.70;;;;;;4901456;29;20040;-72
2021/04/04 13:18:32;;;;;;;;;;;14.80;52.30;;;;;;4901644;29;20039;-72
2021/04/04 13:21:05;;;;;;;4.43;2.58;;;14.90;54.30;;;;;;4901165;29;19918;-72
2021/04/04 13:23:38;;;;;;;6.68;3.53;;;15.00;51.80;;;;;;4901247;29;20067;-73
2021/04/04 13:26:27;;;;;;;4.15;2.50;;;15.00;52.20;;;;;;4901212;29;20044;-73